createdAt,value
2019-02-06T00:00:13.852Z,-959.45
2019-02-06T00:01:13.958Z,-959.50
2019-02-06T00:02:14.181Z,-957.72
2019-02-06T00:03:14.376Z,-959.81
2019-02-06T00:04:15.563Z,-955.59
2019-02-06T00:05:15.833Z,-954.82
2019-02-06T00:06:14.991Z,-960.39
2019-02-06T00:07:15.217Z,-957.87
2019-02-06T00:08:15.550Z,-961.04
2019-02-06T00:09:15.639Z,-961.62
2019-02-06T00:10:15.821Z,-963.97
2019-02-06T00:11:16.075Z,-959.55
2019-02-06T00:12:16.286Z,-962.93
2019-02-06T00:13:22.580Z,-964.26
2019-02-06T00:14:16.723Z,-960.97
2019-02-06T00:15:16.917Z,-963.75
2019-02-06T00:16:17.229Z,-959.44
2019-02-06T00:17:17.332Z,-964.51
2019-02-06T00:18:17.502Z,-962.52
2019-02-06T00:19:17.754Z,-961.73
2019-02-06T00:20:17.923Z,-963.99
2019-02-06T00:21:20.373Z,-958.79
2019-02-06T00:22:18.341Z,-961.89
2019-02-06T00:23:18.557Z,-963.63
2019-02-06T00:24:18.797Z,-966.43
2019-02-06T00:25:18.955Z,-966.06
2019-02-06T00:26:19.164Z,-964.53
2019-02-06T00:27:19.362Z,-966.57
2019-02-06T00:28:19.563Z,-966.77
2019-02-06T00:29:19.785Z,-966.52
2019-02-06T00:30:19.978Z,-968.28
2019-02-06T00:31:20.196Z,-966.52
2019-02-06T00:32:20.445Z,-967.01
2019-02-06T00:33:20.584Z,-961.81
2019-02-06T00:34:20.827Z,-968.86
2019-02-06T00:35:25.794Z,-969.20
2019-02-06T00:36:22.242Z,-974.16
2019-02-06T00:37:21.452Z,-961.08
2019-02-06T00:38:21.639Z,-966.97
2019-02-06T00:39:21.828Z,-962.10
2019-02-06T00:40:22.306Z,-962.28
2019-02-06T00:41:22.388Z,-969.88
2019-02-06T00:42:22.490Z,-965.01
2019-02-06T00:43:22.683Z,-966.42
2019-02-06T00:44:22.889Z,-964.03
2019-02-06T00:45:23.113Z,-970.74
2019-02-06T00:46:23.300Z,-971.18
2019-02-06T00:47:23.530Z,-967.12
2019-02-06T00:48:23.715Z,-965.02
2019-02-06T00:49:24.005Z,-966.99
2019-02-06T00:50:24.130Z,-966.74
2019-02-06T00:51:24.332Z,-969.89
2019-02-06T00:52:24.561Z,-970.01
2019-02-06T00:53:24.742Z,-969.82
2019-02-06T00:54:24.955Z,-972.13
2019-02-06T00:55:25.196Z,-963.85
2019-02-06T00:56:25.381Z,-965.99
2019-02-06T00:57:25.676Z,-968.94
2019-02-06T00:58:25.772Z,-964.27
2019-02-06T00:59:25.991Z,-965.83
2019-02-06T01:00:26.245Z,-965.94
2019-02-06T01:01:26.426Z,-966.22
2019-02-06T01:02:26.659Z,-963.00
2019-02-06T01:03:26.850Z,-964.33
2019-02-06T01:04:27.059Z,-967.08
2019-02-06T01:05:37.443Z,-962.74
2019-02-06T01:06:28.433Z,-966.67
2019-02-06T01:07:27.684Z,-966.38
2019-02-06T01:08:27.866Z,-968.27
2019-02-06T01:09:28.070Z,-965.19
2019-02-06T01:10:28.336Z,-969.57
2019-02-06T01:11:28.494Z,-971.82
2019-02-06T01:12:28.704Z,-970.85
2019-02-06T01:13:28.964Z,-968.26
2019-02-06T01:14:29.309Z,-971.47
2019-02-06T01:15:29.659Z,-971.19
2019-02-06T01:16:29.547Z,-966.80
2019-02-06T01:17:29.750Z,-966.18
2019-02-06T01:18:29.957Z,-975.12
2019-02-06T01:19:30.176Z,-966.37
2019-02-06T01:20:30.454Z,-966.16
2019-02-06T01:21:30.598Z,-966.51
2019-02-06T01:22:30.887Z,-971.50
2019-02-06T01:23:31.003Z,-968.07
2019-02-06T01:24:31.211Z,-974.49
2019-02-06T01:25:31.461Z,-976.09
2019-02-06T01:26:31.618Z,-971.64
2019-02-06T01:27:31.837Z,-973.19
2019-02-06T01:28:32.011Z,-973.13
2019-02-06T01:29:32.238Z,-968.72
2019-02-06T01:30:32.606Z,-970.13
2019-02-06T01:31:32.663Z,-971.70
2019-02-06T01:32:32.910Z,-967.08
2019-02-06T01:33:33.069Z,-972.60
2019-02-06T01:34:33.293Z,-962.37
2019-02-06T01:35:33.539Z,-974.17
2019-02-06T01:36:33.714Z,-971.50
2019-02-06T01:37:33.928Z,-964.01
2019-02-06T01:38:34.167Z,-964.15
2019-02-06T01:39:34.310Z,-961.16
2019-02-06T01:40:34.589Z,-955.61
2019-02-06T01:41:34.736Z,-953.93
2019-02-06T01:42:35.205Z,-960.23
2019-02-06T01:43:35.157Z,-961.06
2019-02-06T01:44:35.354Z,-966.85
2019-02-06T01:45:35.592Z,-965.60
2019-02-06T01:46:35.805Z,-964.06
2019-02-06T01:47:35.963Z,-967.39
2019-02-06T01:48:36.168Z,-968.43
2019-02-06T01:49:36.372Z,-970.22
2019-02-06T01:50:36.640Z,-968.72
2019-02-06T01:51:36.850Z,-970.59
2019-02-06T01:52:37.012Z,-971.53
2019-02-06T01:53:37.203Z,-972.12
2019-02-06T01:54:37.437Z,-969.82
2019-02-06T01:55:37.767Z,-967.26
2019-02-06T01:56:37.805Z,-970.10
2019-02-06T01:57:38.032Z,-973.47
2019-02-06T01:58:38.245Z,-966.51
2019-02-06T01:59:38.457Z,-969.56
2019-02-06T02:00:38.746Z,-916.05
2019-02-06T02:01:38.873Z,-917.49
2019-02-06T02:02:39.064Z,-914.96
2019-02-06T02:03:39.382Z,-919.00
2019-02-06T02:04:39.502Z,-918.72
2019-02-06T02:05:39.756Z,-917.94
2019-02-06T02:06:39.903Z,-918.70
2019-02-06T02:07:40.116Z,-917.27
2019-02-06T02:08:40.349Z,-913.30
2019-02-06T02:09:40.543Z,-915.45
2019-02-06T02:10:40.794Z,-918.98
2019-02-06T02:11:41.029Z,-913.85
2019-02-06T02:12:41.134Z,-918.65
2019-02-06T02:13:41.387Z,-918.25
2019-02-06T02:14:41.577Z,-918.30
2019-02-06T02:15:41.832Z,-916.82
2019-02-06T02:16:41.978Z,-915.55
2019-02-06T02:17:42.185Z,-916.38
2019-02-06T02:18:42.399Z,-916.51
2019-02-06T02:19:42.649Z,-914.79
2019-02-06T02:20:42.854Z,-916.63
2019-02-06T02:21:43.028Z,-916.83
2019-02-06T02:22:43.227Z,-907.98
2019-02-06T02:23:43.444Z,-915.47
2019-02-06T02:24:43.612Z,-913.76
2019-02-06T02:25:43.883Z,-916.58
2019-02-06T02:26:44.039Z,-914.16
2019-02-06T02:27:44.283Z,-914.99
2019-02-06T02:28:44.629Z,-908.13
2019-02-06T02:29:44.652Z,-913.60
2019-02-06T02:30:44.925Z,-910.38
2019-02-06T02:31:45.098Z,-917.08
2019-02-06T02:32:45.292Z,-913.73
2019-02-06T02:33:45.520Z,-915.09
2019-02-06T02:34:45.708Z,-911.46
2019-02-06T02:35:45.980Z,-905.87
2019-02-06T02:36:46.242Z,-903.78
2019-02-06T02:37:46.342Z,-910.29
2019-02-06T02:38:46.568Z,-909.98
2019-02-06T02:39:46.756Z,-908.58
2019-02-06T02:40:46.989Z,-912.51
2019-02-06T02:41:47.170Z,-909.64
2019-02-06T02:42:47.392Z,-911.27
2019-02-06T02:43:47.610Z,-914.64
2019-02-06T02:44:47.914Z,-909.19
2019-02-06T02:45:48.052Z,-911.09
2019-02-06T02:46:48.223Z,-907.46
2019-02-06T02:47:48.431Z,-916.05
2019-02-06T02:48:48.653Z,-915.76
2019-02-06T02:49:48.843Z,-913.80
2019-02-06T02:50:49.085Z,-915.85
2019-02-06T02:51:49.238Z,-918.80
2019-02-06T02:52:49.526Z,-913.54
2019-02-06T02:53:49.689Z,-918.30
2019-02-06T02:54:49.883Z,-914.41
2019-02-06T02:55:50.144Z,-913.24
2019-02-06T02:56:50.296Z,-913.56
2019-02-06T02:57:50.478Z,-910.37
2019-02-06T02:58:50.723Z,-915.19
2019-02-06T02:59:50.915Z,-915.05
2019-02-06T03:00:51.191Z,-916.06
2019-02-06T03:01:51.303Z,-912.76
2019-02-06T03:02:51.503Z,-913.52
2019-02-06T03:03:51.734Z,-915.90
2019-02-06T03:04:51.935Z,-910.30
2019-02-06T03:05:52.394Z,-920.29
2019-02-06T03:06:52.363Z,-919.57
2019-02-06T03:07:52.585Z,-911.78
2019-02-06T03:08:52.814Z,-913.81
2019-02-06T03:09:53.038Z,-919.52
2019-02-06T03:10:53.231Z,-916.80
2019-02-06T03:11:53.445Z,-924.72
2019-02-06T03:12:53.636Z,-922.83
2019-02-06T03:13:53.853Z,-922.72
2019-02-06T03:14:54.065Z,-917.05
2019-02-06T03:15:54.256Z,-924.13
2019-02-06T03:16:54.549Z,-918.48
2019-02-06T03:17:54.750Z,-919.91
2019-02-06T03:18:54.872Z,-920.49
2019-02-06T03:19:55.060Z,-916.27
2019-02-06T03:20:55.280Z,-927.17
2019-02-06T03:21:55.760Z,-919.29
2019-02-06T03:22:55.691Z,-919.41
2019-02-06T03:23:55.944Z,-919.41
2019-02-06T03:24:56.117Z,-924.17
2019-02-06T03:25:56.423Z,-923.33
2019-02-06T03:26:56.541Z,-921.36
2019-02-06T03:27:56.732Z,-920.73
2019-02-06T03:28:56.945Z,-924.62
2019-02-06T03:29:57.145Z,-917.10
2019-02-06T03:30:57.337Z,-923.89
2019-02-06T03:31:57.586Z,-921.33
2019-02-06T03:32:57.800Z,-920.60
2019-02-06T03:33:58.042Z,-919.33
2019-02-06T03:34:58.161Z,-915.74
2019-02-06T03:35:58.372Z,-916.91
2019-02-06T03:36:58.603Z,-914.66
2019-02-06T03:37:58.783Z,-917.93
2019-02-06T03:38:59.016Z,-915.17
2019-02-06T03:39:59.191Z,-911.15
2019-02-06T03:40:59.403Z,-913.82
2019-02-06T03:41:59.676Z,-908.70
2019-02-06T03:42:59.796Z,-912.70
2019-02-06T03:44:00.044Z,-904.63
2019-02-06T03:45:00.289Z,-904.21
2019-02-06T03:46:00.442Z,-889.20
2019-02-06T03:47:00.683Z,-903.88
2019-02-06T03:48:00.866Z,-909.00
2019-02-06T03:49:01.062Z,-906.85
2019-02-06T03:50:01.279Z,-917.13
2019-02-06T03:51:01.587Z,-911.01
2019-02-06T03:52:01.713Z,-913.38
2019-02-06T03:53:01.875Z,-911.73
2019-02-06T03:54:02.111Z,-913.92
2019-02-06T03:55:02.325Z,-917.87
2019-02-06T03:56:02.528Z,-914.95
2019-02-06T03:57:02.764Z,-910.77
2019-02-06T03:58:02.944Z,-906.35
2019-02-06T03:59:03.251Z,-908.70
2019-02-06T04:00:03.346Z,-915.14
2019-02-06T04:01:03.553Z,-910.06
2019-02-06T04:02:03.797Z,-915.80
2019-02-06T04:03:03.965Z,-919.86
2019-02-06T04:04:04.162Z,-917.85
2019-02-06T04:05:04.368Z,-917.46
2019-02-06T04:06:04.599Z,-914.57
2019-02-06T04:07:04.920Z,-915.60
2019-02-06T04:08:04.991Z,-918.68
2019-02-06T04:09:05.200Z,-918.23
2019-02-06T04:10:05.458Z,-908.57
2019-02-06T04:11:05.632Z,-910.68
2019-02-06T04:12:05.883Z,-908.95
2019-02-06T04:13:06.045Z,-911.54
2019-02-06T04:14:06.253Z,-913.69
2019-02-06T04:15:06.518Z,-907.81
2019-02-06T04:16:06.653Z,-898.25
2019-02-06T04:17:06.900Z,-900.51
2019-02-06T04:18:07.079Z,-907.17
2019-02-06T04:19:07.288Z,-906.61
2019-02-06T04:20:07.511Z,-908.66
2019-02-06T04:21:07.702Z,-909.19
2019-02-06T04:22:07.956Z,-910.65
2019-02-06T04:23:08.156Z,-912.56
2019-02-06T04:24:08.419Z,-914.44
2019-02-06T04:25:08.590Z,-908.64
2019-02-06T04:26:08.781Z,-908.69
2019-02-06T04:27:09.038Z,-902.63
2019-02-06T04:28:09.179Z,-902.52
2019-02-06T04:29:09.401Z,-900.43
2019-02-06T04:30:09.631Z,-898.32
2019-02-06T04:31:09.832Z,-894.03
2019-02-06T04:32:10.171Z,-895.29
2019-02-06T04:33:10.231Z,-891.34
2019-02-06T04:34:10.437Z,-897.26
2019-02-06T04:35:10.668Z,-892.47
2019-02-06T04:36:10.850Z,-893.53
2019-02-06T04:37:11.115Z,-891.31
2019-02-06T04:38:11.238Z,-944.02
2019-02-06T04:39:11.463Z,-938.20
2019-02-06T04:40:11.788Z,-931.21
2019-02-06T04:41:11.898Z,-928.39
2019-02-06T04:42:12.165Z,-925.87
2019-02-06T04:43:12.287Z,-932.33
2019-02-06T04:44:12.501Z,-936.48
2019-02-06T04:45:12.757Z,-936.34
2019-02-06T04:46:12.937Z,-935.59
2019-02-06T04:47:13.183Z,-942.09
2019-02-06T04:48:13.398Z,-938.90
2019-02-06T04:49:13.536Z,-942.36
2019-02-06T04:50:13.782Z,-937.88
2019-02-06T04:51:13.975Z,-929.25
2019-02-06T04:52:14.217Z,-933.27
2019-02-06T04:53:14.380Z,-943.61
2019-02-06T04:54:14.581Z,-940.87
2019-02-06T04:55:14.796Z,-937.63
2019-02-06T04:56:15.068Z,-935.99
2019-02-06T04:57:15.224Z,-935.12
2019-02-06T04:58:15.413Z,-933.82
2019-02-06T04:59:15.629Z,-933.29
2019-02-06T05:00:16.089Z,-934.89
2019-02-06T05:01:16.029Z,-934.56
2019-02-06T05:02:16.292Z,-936.35
2019-02-06T05:03:16.460Z,-942.92
2019-02-06T05:04:16.712Z,-936.25
2019-02-06T05:05:16.930Z,-934.35
2019-02-06T05:06:17.079Z,-934.11
2019-02-06T05:07:19.155Z,-935.45
2019-02-06T05:08:17.498Z,-932.57
2019-02-06T05:09:17.694Z,-933.54
2019-02-06T05:10:17.918Z,-933.36
2019-02-06T05:11:18.113Z,-932.80
2019-02-06T05:12:18.336Z,-935.21
2019-02-06T05:13:18.656Z,-933.00
2019-02-06T05:14:18.760Z,-933.65
2019-02-06T05:15:18.971Z,-934.96
2019-02-06T05:16:19.262Z,-932.59
2019-02-06T05:17:19.349Z,-928.36
2019-02-06T05:18:19.596Z,-930.84
2019-02-06T05:19:19.799Z,-930.24
2019-02-06T05:20:20.033Z,-936.99
2019-02-06T05:21:20.307Z,-937.86
2019-02-06T05:22:20.385Z,-932.82
2019-02-06T05:23:20.638Z,-933.65
2019-02-06T05:24:20.832Z,-936.72
2019-02-06T05:25:21.091Z,-928.43
2019-02-06T05:26:21.236Z,-929.55
2019-02-06T05:27:21.441Z,-932.54
2019-02-06T05:28:21.662Z,-934.00
2019-02-06T05:29:21.909Z,-935.21
2019-02-06T05:30:22.099Z,-934.82
2019-02-06T05:31:22.271Z,-938.89
2019-02-06T05:32:22.489Z,-934.63
2019-02-06T05:33:22.733Z,-934.55
2019-02-06T05:34:22.876Z,-933.51
2019-02-06T05:35:23.113Z,-941.00
2019-02-06T05:36:23.305Z,-937.21
2019-02-06T05:37:31.507Z,-936.82
2019-02-06T05:38:24.754Z,-929.14
2019-02-06T05:39:23.914Z,-937.03
2019-02-06T05:40:24.177Z,-877.61
2019-02-06T05:41:24.358Z,-932.21
2019-02-06T05:42:24.575Z,-878.63
2019-02-06T05:43:24.812Z,-932.32
2019-02-06T05:44:24.978Z,-877.26
2019-02-06T05:45:25.229Z,-934.71
2019-02-06T05:46:25.550Z,-937.58
2019-02-06T05:47:25.601Z,-937.53
2019-02-06T05:48:25.832Z,-941.34
2019-02-06T05:49:26.011Z,-934.84
2019-02-06T05:50:26.232Z,-933.07
2019-02-06T05:51:26.412Z,-937.47
2019-02-06T05:52:26.634Z,-932.87
2019-02-06T05:53:26.870Z,-936.89
2019-02-06T05:54:27.268Z,-939.36
2019-02-06T05:55:27.260Z,-943.32
2019-02-06T05:56:27.471Z,-945.58
2019-02-06T05:57:27.690Z,-935.74
2019-02-06T05:58:27.949Z,-939.61
2019-02-06T05:59:28.110Z,-942.62
2019-02-06T06:00:28.334Z,-939.65
2019-02-06T06:01:28.518Z,-943.16
2019-02-06T06:02:28.760Z,-944.05
2019-02-06T06:03:28.945Z,-936.93
2019-02-06T06:04:29.138Z,-942.04
2019-02-06T06:05:29.359Z,-942.12
2019-02-06T06:06:29.673Z,-941.88
2019-02-06T06:07:29.736Z,-939.19
2019-02-06T06:08:30.062Z,-938.44
2019-02-06T06:09:30.166Z,-939.21
2019-02-06T06:10:30.469Z,-937.35
2019-02-06T06:11:30.582Z,-943.47
2019-02-06T06:12:30.775Z,-940.36
2019-02-06T06:13:35.637Z,-941.80
2019-02-06T06:14:31.183Z,-938.47
2019-02-06T06:15:31.426Z,-941.69
2019-02-06T06:16:31.620Z,-934.35
2019-02-06T06:17:31.815Z,-934.21
2019-02-06T06:18:32.097Z,-933.16
2019-02-06T06:19:32.254Z,-938.08
2019-02-06T06:20:32.481Z,-940.75
2019-02-06T06:21:32.654Z,-942.50
2019-02-06T06:22:32.857Z,-942.00
2019-02-06T06:23:33.096Z,-940.55
2019-02-06T06:24:33.275Z,-943.03
2019-02-06T06:25:33.457Z,-946.59
2019-02-06T06:26:33.712Z,-936.32
2019-02-06T06:27:33.990Z,-938.89
2019-02-06T06:28:34.133Z,-935.18
2019-02-06T06:29:34.294Z,-945.74
2019-02-06T06:30:34.512Z,-936.48
2019-02-06T06:31:34.752Z,-947.84
2019-02-06T06:32:34.962Z,-939.24
2019-02-06T06:33:35.187Z,-938.51
2019-02-06T06:34:35.371Z,-945.00
2019-02-06T06:35:35.677Z,-944.18
2019-02-06T06:36:35.799Z,-935.46
2019-02-06T06:37:35.990Z,-937.49
2019-02-06T06:38:36.461Z,-940.94
2019-02-06T06:39:36.403Z,-941.41
2019-02-06T06:40:36.608Z,-941.51
2019-02-06T06:41:36.815Z,-941.24
2019-02-06T06:42:37.021Z,-945.09
2019-02-06T06:43:37.313Z,-941.88
2019-02-06T06:44:37.419Z,-945.74
2019-02-06T06:45:37.632Z,-941.03
2019-02-06T06:46:37.839Z,-950.01
2019-02-06T06:47:38.030Z,-946.37
2019-02-06T06:48:38.281Z,-936.84
2019-02-06T06:49:38.460Z,-939.67
2019-02-06T06:50:38.667Z,-939.92
2019-02-06T06:51:38.978Z,-943.87
2019-02-06T06:52:39.043Z,-943.82
2019-02-06T06:53:39.306Z,-942.24
2019-02-06T06:54:39.500Z,-944.06
2019-02-06T06:55:39.708Z,-938.86
2019-02-06T06:56:39.933Z,-940.31
2019-02-06T06:57:40.126Z,-946.69
2019-02-06T06:58:40.355Z,-939.84
2019-02-06T06:59:40.568Z,-946.60
2019-02-06T07:00:40.834Z,-949.76
2019-02-06T07:01:40.968Z,-946.34
2019-02-06T07:02:41.654Z,-945.20
2019-02-06T07:03:41.396Z,-946.70
2019-02-06T07:04:41.556Z,-943.93
2019-02-06T07:05:41.783Z,-943.85
2019-02-06T07:06:42.005Z,-946.72
2019-02-06T07:07:42.198Z,-944.90
2019-02-06T07:08:42.480Z,-948.10
2019-02-06T07:09:42.612Z,-944.81
2019-02-06T07:10:42.831Z,-945.77
2019-02-06T07:11:43.046Z,-950.98
2019-02-06T07:12:43.235Z,-943.08
2019-02-06T07:13:43.469Z,-947.16
2019-02-06T07:14:43.639Z,-947.54
2019-02-06T07:15:43.868Z,-947.72
2019-02-06T07:16:44.219Z,-949.66
2019-02-06T07:17:44.279Z,-942.17
2019-02-06T07:18:44.514Z,-945.00
2019-02-06T07:19:44.684Z,-947.67
2019-02-06T07:20:44.889Z,-949.91
2019-02-06T07:21:45.126Z,-945.37
2019-02-06T07:22:45.315Z,-944.98
2019-02-06T07:23:45.562Z,-945.48
2019-02-06T07:24:45.774Z,-945.86
2019-02-06T07:25:45.903Z,-946.31
2019-02-06T07:26:46.137Z,-949.35
2019-02-06T07:27:46.343Z,-943.57
2019-02-06T07:28:46.573Z,-939.81
2019-02-06T07:29:46.757Z,-945.66
2019-02-06T07:30:46.961Z,-961.31
2019-02-06T07:31:47.192Z,-943.12
2019-02-06T07:32:47.440Z,-943.40
2019-02-06T07:33:47.591Z,-947.39
2019-02-06T07:34:47.814Z,-949.37
2019-02-06T07:35:48.019Z,-932.24
2019-02-06T07:36:48.245Z,-941.21
2019-02-06T07:37:48.435Z,-940.68
2019-02-06T07:38:48.636Z,-946.50
2019-02-06T07:39:48.866Z,-942.86
2019-02-06T07:40:49.090Z,-949.65
2019-02-06T07:41:49.396Z,-952.39
2019-02-06T07:42:49.466Z,-946.04
2019-02-06T07:43:49.702Z,-951.91
2019-02-06T07:44:49.909Z,-947.01
2019-02-06T07:45:50.107Z,-945.71
2019-02-06T07:46:50.332Z,-951.48
2019-02-06T07:47:50.520Z,-951.82
2019-02-06T07:48:50.725Z,-952.41
2019-02-06T07:49:51.086Z,-955.35
2019-02-06T07:50:51.153Z,-949.54
2019-02-06T07:51:51.382Z,-954.63
2019-02-06T07:52:51.562Z,-953.18
2019-02-06T07:53:51.783Z,-955.08
2019-02-06T07:54:52.007Z,-943.87
2019-02-06T07:55:52.197Z,-943.23
2019-02-06T07:56:52.423Z,-952.84
2019-02-06T07:57:52.675Z,-954.99
2019-02-06T07:58:52.850Z,-953.49
2019-02-06T07:59:53.018Z,-955.15
2019-02-06T08:00:53.225Z,-956.21
2019-02-06T08:01:53.441Z,-954.59
2019-02-06T08:02:53.639Z,-954.92
2019-02-06T08:03:53.868Z,-951.00
2019-02-06T08:04:54.072Z,-953.51
2019-02-06T08:05:54.327Z,-948.36
2019-02-06T08:06:54.483Z,-949.81
2019-02-06T08:07:54.709Z,-949.33
2019-02-06T08:08:54.867Z,-949.70
2019-02-06T08:09:55.102Z,-953.57
2019-02-06T08:10:55.283Z,-941.92
2019-02-06T08:11:55.491Z,-940.13
2019-02-06T08:12:55.701Z,-943.06
2019-02-06T08:13:56.003Z,-948.60
2019-02-06T08:14:56.163Z,-952.02
2019-02-06T08:15:56.300Z,-936.15
2019-02-06T08:16:56.775Z,-944.32
2019-02-06T08:17:56.748Z,-947.89
2019-02-06T08:18:56.966Z,-950.38
2019-02-06T08:19:57.198Z,-945.89
2019-02-06T08:20:57.370Z,-951.45
2019-02-06T08:21:57.605Z,-886.82
2019-02-06T08:22:57.923Z,-825.95
2019-02-06T08:23:58.027Z,-925.44
2019-02-06T08:24:58.258Z,-951.16
2019-02-06T08:25:58.442Z,-954.04
2019-02-06T08:26:58.656Z,-952.72
2019-02-06T08:27:58.851Z,-953.52
2019-02-06T08:28:59.067Z,-960.18
2019-02-06T08:29:59.283Z,-962.59
2019-02-06T08:30:59.633Z,-954.50
2019-02-06T08:31:59.668Z,-954.54
2019-02-06T08:32:59.897Z,-950.95
2019-02-06T08:34:00.099Z,-952.42
2019-02-06T08:35:00.354Z,-950.70
2019-02-06T08:36:00.514Z,-943.31
2019-02-06T08:37:00.725Z,-952.56
2019-02-06T08:38:00.942Z,-961.99
2019-02-06T08:39:01.212Z,-956.55
2019-02-06T08:40:01.354Z,-961.05
2019-02-06T08:41:01.537Z,-962.50
2019-02-06T08:42:01.752Z,-960.63
2019-02-06T08:43:01.982Z,-958.76
2019-02-06T08:44:02.177Z,-963.81
2019-02-06T08:45:02.406Z,-958.60
2019-02-06T08:46:02.603Z,-960.40
2019-02-06T08:47:02.841Z,-953.25
2019-02-06T08:48:03.013Z,-962.26
2019-02-06T08:49:03.208Z,-961.16
2019-02-06T08:50:03.441Z,-958.43
2019-02-06T08:51:03.636Z,-959.04
2019-02-06T08:52:03.858Z,-959.71
2019-02-06T08:53:04.099Z,-960.27
2019-02-06T08:54:04.272Z,-958.46
2019-02-06T08:55:04.537Z,-956.94
2019-02-06T08:56:04.756Z,-941.44
2019-02-06T08:57:04.888Z,-950.95
2019-02-06T08:58:05.174Z,-950.49
2019-02-06T08:59:05.303Z,-954.42
2019-02-06T09:00:05.529Z,-953.15
2019-02-06T09:01:05.699Z,-958.29
2019-02-06T09:02:05.926Z,-963.26
2019-02-06T09:03:06.192Z,-963.90
2019-02-06T09:04:06.544Z,-954.10
2019-02-06T09:05:07.539Z,-958.61
2019-02-06T09:06:06.752Z,-968.71
2019-02-06T09:07:06.960Z,-963.32
2019-02-06T09:08:07.224Z,-971.70
2019-02-06T09:09:07.409Z,-962.91
2019-02-06T09:10:07.642Z,-961.31
2019-02-06T09:11:07.825Z,-964.59
2019-02-06T09:12:08.323Z,-972.92
2019-02-06T09:13:08.248Z,-965.83
2019-02-06T09:14:08.424Z,-964.76
2019-02-06T09:15:08.654Z,-963.36
2019-02-06T09:16:08.836Z,-960.47
2019-02-06T09:17:09.025Z,-964.67
2019-02-06T09:18:09.251Z,-966.96
2019-02-06T09:19:09.456Z,-966.26
2019-02-06T09:20:09.723Z,-915.88
2019-02-06T09:21:09.849Z,-912.06
2019-02-06T09:22:10.075Z,-917.82
2019-02-06T09:23:10.269Z,-910.38
2019-02-06T09:24:10.461Z,-906.69
2019-02-06T09:25:10.718Z,-912.45
2019-02-06T09:26:10.878Z,-914.73
2019-02-06T09:27:11.098Z,-902.83
2019-02-06T09:28:11.356Z,-917.09
2019-02-06T09:29:11.513Z,-915.29
2019-02-06T09:30:11.854Z,-912.41
2019-02-06T09:31:11.928Z,-918.13
2019-02-06T09:32:12.132Z,-911.38
2019-02-06T09:33:12.358Z,-916.11
2019-02-06T09:34:12.554Z,-920.67
2019-02-06T09:35:12.791Z,-915.43
2019-02-06T09:36:12.978Z,-909.43
2019-02-06T09:37:13.295Z,-912.02
2019-02-06T09:38:13.407Z,-913.48
2019-02-06T09:39:13.598Z,-916.99
2019-02-06T09:40:13.828Z,-910.81
2019-02-06T09:41:14.009Z,-918.16
2019-02-06T09:42:14.214Z,-914.22
2019-02-06T09:43:14.439Z,-914.37
2019-02-06T09:44:14.627Z,-909.59
2019-02-06T09:45:14.956Z,-913.77
2019-02-06T09:46:15.034Z,-914.29
2019-02-06T09:47:15.248Z,-914.64
2019-02-06T09:48:15.474Z,-915.08
2019-02-06T09:49:15.665Z,-915.00
2019-02-06T09:50:15.887Z,-915.00
2019-02-06T09:51:16.059Z,-909.88
2019-02-06T09:52:16.286Z,-904.10
2019-02-06T09:53:16.816Z,-911.70
2019-02-06T09:54:16.696Z,-906.46
2019-02-06T09:55:16.893Z,-915.66
2019-02-06T09:56:17.116Z,-910.18
2019-02-06T09:57:17.305Z,-903.55
2019-02-06T09:58:17.542Z,-905.61
2019-02-06T09:59:17.737Z,-915.57
2019-02-06T10:00:17.939Z,-914.54
2019-02-06T10:01:21.268Z,-916.76
2019-02-06T10:02:18.333Z,-913.83
2019-02-06T10:03:18.582Z,-916.02
2019-02-06T10:04:18.783Z,-916.96
2019-02-06T10:05:18.987Z,-910.58
2019-02-06T10:06:19.237Z,-910.32
2019-02-06T10:07:19.412Z,-910.09
2019-02-06T10:08:19.630Z,-909.26
2019-02-06T10:09:22.901Z,-914.02
2019-02-06T10:10:20.079Z,-913.38
2019-02-06T10:11:20.258Z,-898.67
2019-02-06T10:12:20.443Z,-911.05
2019-02-06T10:13:20.670Z,-913.81
2019-02-06T10:14:20.853Z,-912.25
2019-02-06T10:15:21.062Z,-896.82
2019-02-06T10:16:21.302Z,-913.19
2019-02-06T10:17:21.484Z,-919.78
2019-02-06T10:18:21.799Z,-914.20
2019-02-06T10:19:21.896Z,-910.54
2019-02-06T10:20:22.182Z,-918.25
2019-02-06T10:21:22.356Z,-911.79
2019-02-06T10:22:22.539Z,-913.68
2019-02-06T10:23:22.919Z,-914.16
2019-02-06T10:24:22.940Z,-913.57
2019-02-06T10:25:23.143Z,-918.19
2019-02-06T10:26:23.495Z,-913.65
2019-02-06T10:27:24.123Z,-915.14
2019-02-06T10:28:24.309Z,-912.14
2019-02-06T10:29:23.947Z,-912.14
2019-02-06T10:30:24.177Z,-915.07
2019-02-06T10:31:24.426Z,-910.09
2019-02-06T10:32:24.608Z,-915.42
2019-02-06T10:33:24.831Z,-914.01
2019-02-06T10:34:25.064Z,-913.33
2019-02-06T10:35:25.195Z,-917.63
2019-02-06T10:36:25.455Z,-917.18
2019-02-06T10:37:25.641Z,-912.06
2019-02-06T10:38:25.864Z,-919.35
2019-02-06T10:39:34.331Z,-912.84
2019-02-06T10:40:27.259Z,-918.22
2019-02-06T10:41:26.487Z,-917.80
2019-02-06T10:42:26.690Z,-916.16
2019-02-06T10:43:32.048Z,-920.39
2019-02-06T10:44:28.084Z,-915.77
2019-02-06T10:45:27.285Z,-918.37
2019-02-06T10:46:27.530Z,-911.61
2019-02-06T10:47:27.682Z,-912.20
2019-02-06T10:48:27.910Z,-907.52
2019-02-06T10:49:28.111Z,-916.80
2019-02-06T10:50:28.338Z,-914.59
2019-02-06T10:51:28.635Z,-913.65
2019-02-06T10:52:28.716Z,-918.48
2019-02-06T10:53:28.941Z,-914.91
2019-02-06T10:54:29.152Z,-914.69
2019-02-06T10:55:29.372Z,-910.12
2019-02-06T10:56:29.598Z,-888.69
2019-02-06T10:57:29.778Z,-905.45
2019-02-06T10:58:29.971Z,-908.83
2019-02-06T10:59:30.298Z,-913.63
2019-02-06T11:00:30.434Z,-908.88
2019-02-06T11:01:30.669Z,-911.34
2019-02-06T11:02:30.844Z,-903.94
2019-02-06T11:03:31.043Z,-905.32
2019-02-06T11:04:31.281Z,-909.96
2019-02-06T11:05:31.493Z,-898.23
2019-02-06T11:06:31.725Z,-905.71
2019-02-06T11:07:31.970Z,-906.80
2019-02-06T11:08:32.090Z,-906.59
2019-02-06T11:09:32.325Z,-905.71
2019-02-06T11:10:32.538Z,-908.73
2019-02-06T11:11:32.743Z,-914.59
2019-02-06T11:12:32.927Z,-922.86
2019-02-06T11:13:33.134Z,-920.45
2019-02-06T11:14:33.351Z,-920.03
2019-02-06T11:15:33.605Z,-889.15
2019-02-06T11:16:33.752Z,-914.48
2019-02-06T11:17:33.959Z,-910.07
2019-02-06T11:18:34.157Z,-914.34
2019-02-06T11:19:34.377Z,-917.99
2019-02-06T11:20:34.553Z,-917.25
2019-02-06T11:21:34.771Z,-922.82
2019-02-06T11:22:34.989Z,-914.88
2019-02-06T11:23:35.228Z,-913.98
2019-02-06T11:24:35.443Z,-913.91
2019-02-06T11:25:35.589Z,-907.31
2019-02-06T11:26:35.812Z,-912.00
2019-02-06T11:27:36.020Z,-913.82
2019-02-06T11:28:36.210Z,-972.26
2019-02-06T11:29:36.440Z,-973.08
2019-02-06T11:30:36.636Z,-967.93
2019-02-06T11:31:36.867Z,-970.18
2019-02-06T11:32:37.143Z,-973.83
2019-02-06T11:33:37.476Z,-971.38
2019-02-06T11:34:37.475Z,-971.20
2019-02-06T11:35:37.659Z,-952.28
2019-02-06T11:36:37.884Z,-962.79
2019-02-06T11:37:38.084Z,-968.97
2019-02-06T11:38:38.274Z,-974.69
2019-02-06T11:39:38.515Z,-974.34
2019-02-06T11:40:38.814Z,-972.87
2019-02-06T11:41:38.909Z,-976.15
2019-02-06T11:42:39.110Z,-972.06
2019-02-06T11:43:39.337Z,-967.10
2019-02-06T11:44:39.567Z,-974.13
2019-02-06T11:45:39.762Z,-969.42
2019-02-06T11:46:39.975Z,-966.35
2019-02-06T11:47:40.161Z,-968.45
2019-02-06T11:48:43.220Z,-963.49
2019-02-06T11:49:40.581Z,-967.26
2019-02-06T11:50:40.795Z,-966.49
2019-02-06T11:51:41.004Z,-962.52
2019-02-06T11:52:41.203Z,-964.22
2019-02-06T11:53:41.389Z,-967.41
2019-02-06T11:54:41.625Z,-942.72
2019-02-06T11:55:41.833Z,-961.04
2019-02-06T11:56:42.097Z,-963.45
2019-02-06T11:57:42.237Z,-967.53
2019-02-06T11:58:42.436Z,-962.28
2019-02-06T11:59:42.650Z,-968.79
2019-02-06T12:00:42.846Z,-975.50
2019-02-06T12:01:43.058Z,-969.60
2019-02-06T12:02:43.282Z,-963.15
2019-02-06T12:03:43.472Z,-962.87
2019-02-06T12:04:43.822Z,-956.89
2019-02-06T12:05:43.925Z,-967.01
2019-02-06T12:06:44.083Z,-960.14
2019-02-06T12:07:44.323Z,-962.58